sensor_id;sensor_type;location;lat;lon;timestamp;P1;durP1;ratioP1;P2;durP2;ratioP2
50213;SDS011;36103;54.176;12.070;2022-11-18T00:00:23;4.57;;;3.77;;
50213;SDS011;36103;54.176;12.070;2022-11-18T00:01:24;3.50;;;3.20;;
50213;SDS011;36103;54.176;12.070;2022-11-18T00:02:25;3.93;;;3.50;;
50213;SDS011;36103;54.176;12.070;2022-11-18T00:03:25;3.70;;;3.37;;
50213;SDS011;36103;54.176;12.070;2022-11-18T00:04:27;4.27;;;3.30;;
50213;SDS011;36103;54.176;12.070;2022-11-18T00:05:29;5.20;;;3.57;;
50213;SDS011;36103;54.176;12.070;2022-11-18T00:06:30;4.17;;;3.60;;
50213;SDS011;36103;54.176;12.070;2022-11-18T00:07:30;3.60;;;3.30;;
50213;SDS011;36103;54.176;12.070;2022-11-18T00:08:32;3.40;;;3.10;;
50213;SDS011;36103;54.176;12.070;2022-11-18T00:09:33;5.17;;;3.63;;
50213;SDS011;36103;54.176;12.070;2022-11-18T00:10:35;3.60;;;3.30;;
50213;SDS011;36103;54.176;12.070;2022-11-18T00:11:36;4.23;;;3.83;;
50213;SDS011;36103;54.176;12.070;2022-11-18T00:12:55;4.20;;;3.30;;
50213;SDS011;36103;54.176;12.070;2022-11-18T00:14:15;3.73;;;3.30;;
50213;SDS011;36103;54.176;12.070;2022-11-18T00:15:22;4.93;;;3.40;;
50213;SDS011;36103;54.176;12.070;2022-11-18T00:16:22;3.83;;;3.40;;
50213;SDS011;36103;54.176;12.070;2022-11-18T00:17:24;3.30;;;3.00;;
50213;SDS011;36103;54.176;12.070;2022-11-18T00:18:25;3.60;;;3.20;;
50213;SDS011;36103;54.176;12.070;2022-11-18T00:19:27;3.43;;;3.13;;
50213;SDS011;36103;54.176;12.070;2022-11-18T00:20:31;3.47;;;3.17;;
50213;SDS011;36103;54.176;12.070;2022-11-18T00:21:32;4.27;;;3.50;;
50213;SDS011;36103;54.176;12.070;2022-11-18T00:22:33;3.77;;;3.47;;
50213;SDS011;36103;54.176;12.070;2022-11-18T00:23:34;3.33;;;3.03;;
50213;SDS011;36103;54.176;12.070;2022-11-18T00:24:35;3.40;;;3.10;;
50213;SDS011;36103;54.176;12.070;2022-11-18T00:25:36;4.00;;;3.60;;
50213;SDS011;36103;54.176;12.070;2022-11-18T00:26:37;3.33;;;3.10;;
50213;SDS011;36103;54.176;12.070;2022-11-18T00:27:38;5.37;;;3.27;;
50213;SDS011;36103;54.176;12.070;2022-11-18T00:28:40;3.50;;;3.20;;
50213;SDS011;36103;54.176;12.070;2022-11-18T00:29:41;3.50;;;3.20;;
50213;SDS011;36103;54.176;12.070;2022-11-18T00:30:42;3.77;;;3.43;;
50213;SDS011;36103;54.176;12.070;2022-11-18T00:31:43;3.13;;;2.93;;
50213;SDS011;36103;54.176;12.070;2022-11-18T00:32:44;3.60;;;3.30;;
50213;SDS011;36103;54.176;12.070;2022-11-18T00:33:45;3.53;;;3.23;;
50213;SDS011;36103;54.176;12.070;2022-11-18T00:34:46;5.00;;;3.53;;
50213;SDS011;36103;54.176;12.070;2022-11-18T00:35:52;3.37;;;3.07;;
50213;SDS011;36103;54.176;12.070;2022-11-18T00:36:54;4.17;;;3.30;;
50213;SDS011;36103;54.176;12.070;2022-11-18T00:37:54;3.13;;;2.93;;
50213;SDS011;36103;54.176;12.070;2022-11-18T00:38:56;3.70;;;3.33;;
50213;SDS011;36103;54.176;12.070;2022-11-18T00:39:56;3.97;;;3.57;;
50213;SDS011;36103;54.176;12.070;2022-11-18T00:40:58;3.43;;;3.13;;
50213;SDS011;36103;54.176;12.070;2022-11-18T00:41:59;3.97;;;3.47;;
50213;SDS011;36103;54.176;12.070;2022-11-18T00:43:18;3.97;;;3.13;;
50213;SDS011;36103;54.176;12.070;2022-11-18T00:44:19;3.40;;;3.10;;
50213;SDS011;36103;54.176;12.070;2022-11-18T00:45:20;4.03;;;3.30;;
50213;SDS011;36103;54.176;12.070;2022-11-18T00:46:22;3.23;;;2.83;;
50213;SDS011;36103;54.176;12.070;2022-11-18T00:47:23;3.60;;;3.20;;
50213;SDS011;36103;54.176;12.070;2022-11-18T00:48:24;4.10;;;2.90;;
50213;SDS011;36103;54.176;12.070;2022-11-18T00:49:25;3.50;;;3.13;;
50213;SDS011;36103;54.176;12.070;2022-11-18T00:50:26;3.20;;;2.90;;
50213;SDS011;36103;54.176;12.070;2022-11-18T00:51:28;3.33;;;3.07;;
50213;SDS011;36103;54.176;12.070;2022-11-18T00:52:29;3.20;;;2.90;;
50213;SDS011;36103;54.176;12.070;2022-11-18T00:53:29;3.87;;;3.40;;
50213;SDS011;36103;54.176;12.070;2022-11-18T00:54:31;4.43;;;3.40;;
50213;SDS011;36103;54.176;12.070;2022-11-18T00:55:31;3.20;;;2.90;;
50213;SDS011;36103;54.176;12.070;2022-11-18T00:56:33;3.50;;;3.20;;
50213;SDS011;36103;54.176;12.070;2022-11-18T00:57:33;2.87;;;2.60;;
50213;SDS011;36103;54.176;12.070;2022-11-18T00:58:35;3.43;;;3.13;;
50213;SDS011;36103;54.176;12.070;2022-11-18T00:59:36;3.73;;;3.30;;
50213;SDS011;36103;54.176;12.070;2022-11-18T01:00:37;3.53;;;2.90;;
50213;SDS011;36103;54.176;12.070;2022-11-18T01:01:37;3.20;;;2.73;;
50213;SDS011;36103;54.176;12.070;2022-11-18T01:02:39;3.80;;;3.00;;
50213;SDS011;36103;54.176;12.070;2022-11-18T01:03:39;3.70;;;2.97;;
50213;SDS011;36103;54.176;12.070;2022-11-18T01:04:40;3.23;;;2.90;;
50213;SDS011;36103;54.176;12.070;2022-11-18T01:05:41;3.33;;;2.97;;
50213;SDS011;36103;54.176;12.070;2022-11-18T01:06:44;3.20;;;2.90;;
50213;SDS011;36103;54.176;12.070;2022-11-18T01:07:44;2.83;;;2.63;;
50213;SDS011;36103;54.176;12.070;2022-11-18T01:08:46;3.40;;;2.73;;
50213;SDS011;36103;54.176;12.070;2022-11-18T01:09:46;3.27;;;2.97;;
50213;SDS011;36103;54.176;12.070;2022-11-18T01:10:47;2.83;;;2.60;;
50213;SDS011;36103;54.176;12.070;2022-11-18T01:11:48;3.37;;;2.80;;
50213;SDS011;36103;54.176;12.070;2022-11-18T01:13:09;3.67;;;3.10;;
50213;SDS011;36103;54.176;12.070;2022-11-18T01:14:20;3.63;;;3.07;;
50213;SDS011;36103;54.176;12.070;2022-11-18T01:15:24;3.07;;;2.80;;
50213;SDS011;36103;54.176;12.070;2022-11-18T01:16:25;3.00;;;2.70;;
50213;SDS011;36103;54.176;12.070;2022-11-18T01:17:28;4.00;;;2.80;;
50213;SDS011;36103;54.176;12.070;2022-11-18T01:18:29;2.93;;;2.73;;
50213;SDS011;36103;54.176;12.070;2022-11-18T01:19:31;3.23;;;2.70;;
50213;SDS011;36103;54.176;12.070;2022-11-18T01:20:32;3.07;;;2.80;;
50213;SDS011;36103;54.176;12.070;2022-11-18T01:21:33;3.43;;;2.90;;
50213;SDS011;36103;54.176;12.070;2022-11-18T01:22:35;3.73;;;3.17;;
50213;SDS011;36103;54.176;12.070;2022-11-18T01:23:37;3.57;;;2.80;;
50213;SDS011;36103;54.176;12.070;2022-11-18T01:24:37;3.30;;;3.00;;
50213;SDS011;36103;54.176;12.070;2022-11-18T01:25:39;3.13;;;2.83;;
50213;SDS011;36103;54.176;12.070;2022-11-18T01:26:41;2.77;;;2.50;;
50213;SDS011;36103;54.176;12.070;2022-11-18T01:27:42;3.50;;;2.90;;
50213;SDS011;36103;54.176;12.070;2022-11-18T01:28:43;3.23;;;2.93;;
50213;SDS011;36103;54.176;12.070;2022-11-18T01:29:45;3.30;;;3.00;;
50213;SDS011;36103;54.176;12.070;2022-11-18T01:30:45;3.23;;;2.60;;
50213;SDS011;36103;54.176;12.070;2022-11-18T01:31:46;4.00;;;3.03;;
50213;SDS011;36103;54.176;12.070;2022-11-18T01:32:47;3.07;;;2.50;;
50213;SDS011;36103;54.176;12.070;2022-11-18T01:33:48;3.37;;;2.87;;
50213;SDS011;36103;54.176;12.070;2022-11-18T01:34:49;2.67;;;2.40;;
50213;SDS011;36103;54.176;12.070;2022-11-18T01:35:50;3.27;;;2.97;;
50213;SDS011;36103;54.176;12.070;2022-11-18T01:36:51;3.57;;;2.70;;
50213;SDS011;36103;54.176;12.070;2022-11-18T01:37:53;3.33;;;2.77;;
50213;SDS011;36103;54.176;12.070;2022-11-18T01:38:54;4.07;;;2.97;;
50213;SDS011;36103;54.176;12.070;2022-11-18T01:39:56;3.20;;;2.90;;
50213;SDS011;36103;54.176;12.070;2022-11-18T01:40:57;3.17;;;2.87;;
50213;SDS011;36103;54.176;12.070;2022-11-18T01:41:58;2.60;;;2.40;;
50213;SDS011;36103;54.176;12.070;2022-11-18T01:42:59;2.93;;;2.63;;
50213;SDS011;36103;54.176;12.070;2022-11-18T01:44:01;3.30;;;2.70;;
50213;SDS011;36103;54.176;12.070;2022-11-18T01:45:04;3.10;;;2.73;;
50213;SDS011;36103;54.176;12.070;2022-11-18T01:46:09;2.63;;;2.43;;
50213;SDS011;36103;54.176;12.070;2022-11-18T01:47:10;3.27;;;2.83;;
50213;SDS011;36103;54.176;12.070;2022-11-18T01:48:12;3.67;;;3.07;;
50213;SDS011;36103;54.176;12.070;2022-11-18T01:49:15;2.90;;;2.60;;
50213;SDS011;36103;54.176;12.070;2022-11-18T01:50:17;3.07;;;2.77;;
50213;SDS011;36103;54.176;12.070;2022-11-18T01:51:20;2.83;;;2.60;;
50213;SDS011;36103;54.176;12.070;2022-11-18T01:52:25;3.13;;;2.83;;
50213;SDS011;36103;54.176;12.070;2022-11-18T01:53:28;2.93;;;2.67;;
50213;SDS011;36103;54.176;12.070;2022-11-18T01:54:32;2.70;;;2.50;;
50213;SDS011;36103;54.176;12.070;2022-11-18T01:55:35;3.20;;;2.83;;
50213;SDS011;36103;54.176;12.070;2022-11-18T01:56:40;3.27;;;2.77;;
50213;SDS011;36103;54.176;12.070;2022-11-18T01:57:43;3.43;;;3.13;;
50213;SDS011;36103;54.176;12.070;2022-11-18T01:58:47;4.33;;;3.20;;
50213;SDS011;36103;54.176;12.070;2022-11-18T01:59:50;3.77;;;2.80;;
50213;SDS011;36103;54.176;12.070;2022-11-18T02:00:54;3.00;;;2.47;;
50213;SDS011;36103;54.176;12.070;2022-11-18T02:01:55;2.77;;;2.57;;
50213;SDS011;36103;54.176;12.070;2022-11-18T02:02:57;2.87;;;2.60;;
50213;SDS011;36103;54.176;12.070;2022-11-18T02:03:59;2.63;;;2.43;;
50213;SDS011;36103;54.176;12.070;2022-11-18T02:05:00;2.80;;;2.60;;
50213;SDS011;36103;54.176;12.070;2022-11-18T02:06:03;3.43;;;2.73;;
50213;SDS011;36103;54.176;12.070;2022-11-18T02:07:04;2.60;;;2.40;;
50213;SDS011;36103;54.176;12.070;2022-11-18T02:08:06;2.87;;;2.63;;
50213;SDS011;36103;54.176;12.070;2022-11-18T02:09:08;2.97;;;2.67;;
50213;SDS011;36103;54.176;12.070;2022-11-18T02:10:15;3.20;;;2.90;;
50213;SDS011;36103;54.176;12.070;2022-11-18T02:11:18;3.00;;;2.70;;
50213;SDS011;36103;54.176;12.070;2022-11-18T02:12:37;2.97;;;2.70;;
50213;SDS011;36103;54.176;12.070;2022-11-18T02:13:38;2.87;;;2.60;;
50213;SDS011;36103;54.176;12.070;2022-11-18T02:14:39;2.90;;;2.60;;
50213;SDS011;36103;54.176;12.070;2022-11-18T02:15:45;2.60;;;2.40;;
50213;SDS011;36103;54.176;12.070;2022-11-18T02:16:52;3.37;;;2.97;;
50213;SDS011;36103;54.176;12.070;2022-11-18T02:18:02;2.67;;;2.47;;
50213;SDS011;36103;54.176;12.070;2022-11-18T02:19:09;3.03;;;2.60;;
50213;SDS011;36103;54.176;12.070;2022-11-18T02:20:18;2.87;;;2.67;;
50213;SDS011;36103;54.176;12.070;2022-11-18T02:21:27;3.00;;;2.70;;
50213;SDS011;36103;54.176;12.070;2022-11-18T02:25:37;2.37;;;2.17;;
50213;SDS011;36103;54.176;12.070;2022-11-18T02:26:54;2.63;;;2.43;;
50213;SDS011;36103;54.176;12.070;2022-11-18T02:28:32;4.43;;;2.80;;
50213;SDS011;36103;54.176;12.070;2022-11-18T02:29:38;3.47;;;2.60;;
50213;SDS011;36103;54.176;12.070;2022-11-18T02:30:46;3.10;;;2.80;;
50213;SDS011;36103;54.176;12.070;2022-11-18T02:32:03;3.27;;;2.53;;
50213;SDS011;36103;54.176;12.070;2022-11-18T02:33:07;2.60;;;2.40;;
50213;SDS011;36103;54.176;12.070;2022-11-18T02:34:12;2.70;;;2.50;;
50213;SDS011;36103;54.176;12.070;2022-11-18T02:35:19;3.60;;;3.10;;
50213;SDS011;36103;54.176;12.070;2022-11-18T02:36:24;2.60;;;2.40;;
50213;SDS011;36103;54.176;12.070;2022-11-18T02:37:30;3.07;;;2.77;;
50213;SDS011;36103;54.176;12.070;2022-11-18T02:38:36;2.90;;;2.60;;
50213;SDS011;36103;54.176;12.070;2022-11-18T02:39:42;2.70;;;2.50;;
50213;SDS011;36103;54.176;12.070;2022-11-18T02:40:45;3.17;;;2.87;;
50213;SDS011;36103;54.176;12.070;2022-11-18T02:41:48;3.00;;;2.60;;
50213;SDS011;36103;54.176;12.070;2022-11-18T02:42:51;3.07;;;2.47;;
50213;SDS011;36103;54.176;12.070;2022-11-18T02:43:56;3.27;;;2.97;;
50213;SDS011;36103;54.176;12.070;2022-11-18T02:45:01;3.13;;;2.83;;
50213;SDS011;36103;54.176;12.070;2022-11-18T02:46:06;2.90;;;2.60;;
50213;SDS011;36103;54.176;12.070;2022-11-18T02:47:08;3.03;;;2.73;;
50213;SDS011;36103;54.176;12.070;2022-11-18T02:48:11;2.97;;;2.67;;
50213;SDS011;36103;54.176;12.070;2022-11-18T02:49:14;2.77;;;2.40;;
50213;SDS011;36103;54.176;12.070;2022-11-18T02:50:20;2.73;;;2.53;;
50213;SDS011;36103;54.176;12.070;2022-11-18T02:51:25;2.70;;;2.50;;
50213;SDS011;36103;54.176;12.070;2022-11-18T02:52:26;2.53;;;2.33;;
50213;SDS011;36103;54.176;12.070;2022-11-18T02:53:28;4.23;;;2.50;;
50213;SDS011;36103;54.176;12.070;2022-11-18T02:54:29;2.80;;;2.50;;
50213;SDS011;36103;54.176;12.070;2022-11-18T02:55:33;2.67;;;2.47;;
50213;SDS011;36103;54.176;12.070;2022-11-18T02:56:34;3.77;;;2.50;;
50213;SDS011;36103;54.176;12.070;2022-11-18T02:57:36;2.70;;;2.50;;
50213;SDS011;36103;54.176;12.070;2022-11-18T02:58:37;2.73;;;2.50;;
50213;SDS011;36103;54.176;12.070;2022-11-18T02:59:39;2.80;;;2.40;;
50213;SDS011;36103;54.176;12.070;2022-11-18T03:00:40;2.70;;;2.50;;
50213;SDS011;36103;54.176;12.070;2022-11-18T03:01:42;2.43;;;2.20;;
50213;SDS011;36103;54.176;12.070;2022-11-18T03:02:43;3.73;;;2.80;;
50213;SDS011;36103;54.176;12.070;2022-11-18T03:03:46;2.90;;;2.60;;
50213;SDS011;36103;54.176;12.070;2022-11-18T03:04:47;2.70;;;2.50;;
50213;SDS011;36103;54.176;12.070;2022-11-18T03:05:51;2.73;;;2.53;;
50213;SDS011;36103;54.176;12.070;2022-11-18T03:06:55;2.67;;;2.33;;
50213;SDS011;36103;54.176;12.070;2022-11-18T03:08:04;3.10;;;2.80;;
50213;SDS011;36103;54.176;12.070;2022-11-18T03:09:10;2.70;;;2.50;;
50213;SDS011;36103;54.176;12.070;2022-11-18T03:10:13;3.00;;;2.40;;
50213;SDS011;36103;54.176;12.070;2022-11-18T03:11:15;2.63;;;2.43;;
50213;SDS011;36103;54.176;12.070;2022-11-18T03:12:20;2.90;;;2.60;;
50213;SDS011;36103;54.176;12.070;2022-11-18T03:13:23;3.30;;;2.50;;
50213;SDS011;36103;54.176;12.070;2022-11-18T03:14:31;2.80;;;2.60;;
50213;SDS011;36103;54.176;12.070;2022-11-18T03:15:33;2.97;;;2.67;;
50213;SDS011;36103;54.176;12.070;2022-11-18T03:16:39;2.73;;;2.50;;
50213;SDS011;36103;54.176;12.070;2022-11-18T03:17:45;2.77;;;2.57;;
50213;SDS011;36103;54.176;12.070;2022-11-18T03:18:51;2.53;;;2.17;;
50213;SDS011;36103;54.176;12.070;2022-11-18T03:19:58;2.50;;;2.30;;
50213;SDS011;36103;54.176;12.070;2022-11-18T03:21:07;2.77;;;2.57;;
50213;SDS011;36103;54.176;12.070;2022-11-18T03:22:11;2.90;;;2.60;;
50213;SDS011;36103;54.176;12.070;2022-11-18T03:23:19;3.00;;;2.60;;
50213;SDS011;36103;54.176;12.070;2022-11-18T03:24:24;2.93;;;2.63;;
50213;SDS011;36103;54.176;12.070;2022-11-18T03:25:29;3.20;;;2.90;;
50213;SDS011;36103;54.176;12.070;2022-11-18T03:26:34;2.90;;;2.67;;
50213;SDS011;36103;54.176;12.070;2022-11-18T03:27:37;2.70;;;2.40;;
50213;SDS011;36103;54.176;12.070;2022-11-18T03:28:41;2.87;;;2.57;;
50213;SDS011;36103;54.176;12.070;2022-11-18T03:29:47;2.53;;;2.33;;
50213;SDS011;36103;54.176;12.070;2022-11-18T03:30:52;3.13;;;2.83;;
50213;SDS011;36103;54.176;12.070;2022-11-18T03:31:58;2.40;;;2.20;;
50213;SDS011;36103;54.176;12.070;2022-11-18T03:33:03;3.03;;;2.73;;
50213;SDS011;36103;54.176;12.070;2022-11-18T03:34:07;2.60;;;2.40;;
50213;SDS011;36103;54.176;12.070;2022-11-18T03:35:11;3.10;;;2.70;;
50213;SDS011;36103;54.176;12.070;2022-11-18T03:36:17;2.90;;;2.70;;
50213;SDS011;36103;54.176;12.070;2022-11-18T03:37:20;2.93;;;2.60;;
50213;SDS011;36103;54.176;12.070;2022-11-18T03:38:22;2.90;;;2.70;;
50213;SDS011;36103;54.176;12.070;2022-11-18T03:39:25;2.63;;;2.43;;
50213;SDS011;36103;54.176;12.070;2022-11-18T03:40:30;3.43;;;3.00;;
50213;SDS011;36103;54.176;12.070;2022-11-18T03:41:32;3.10;;;2.80;;
50213;SDS011;36103;54.176;12.070;2022-11-18T03:42:39;3.07;;;2.77;;
50213;SDS011;36103;54.176;12.070;2022-11-18T03:43:42;2.80;;;2.60;;
50213;SDS011;36103;54.176;12.070;2022-11-18T03:44:47;2.53;;;2.23;;
50213;SDS011;36103;54.176;12.070;2022-11-18T03:45:50;2.90;;;2.70;;
50213;SDS011;36103;54.176;12.070;2022-11-18T03:46:54;3.37;;;3.07;;
50213;SDS011;36103;54.176;12.070;2022-11-18T03:47:59;2.90;;;2.60;;
50213;SDS011;36103;54.176;12.070;2022-11-18T03:49:03;2.53;;;2.33;;
50213;SDS011;36103;54.176;12.070;2022-11-18T03:50:07;2.77;;;2.53;;
50213;SDS011;36103;54.176;12.070;2022-11-18T03:51:13;2.70;;;2.50;;
50213;SDS011;36103;54.176;12.070;2022-11-18T03:52:17;2.43;;;2.23;;
50213;SDS011;36103;54.176;12.070;2022-11-18T03:53:21;2.53;;;2.33;;
50213;SDS011;36103;54.176;12.070;2022-11-18T03:54:26;2.70;;;2.50;;
50213;SDS011;36103;54.176;12.070;2022-11-18T03:55:31;2.20;;;2.00;;
50213;SDS011;36103;54.176;12.070;2022-11-18T03:56:35;3.07;;;2.77;;
50213;SDS011;36103;54.176;12.070;2022-11-18T03:57:40;2.80;;;2.60;;
50213;SDS011;36103;54.176;12.070;2022-11-18T03:58:46;2.30;;;2.17;;
50213;SDS011;36103;54.176;12.070;2022-11-18T03:59:51;2.90;;;2.47;;
50213;SDS011;36103;54.176;12.070;2022-11-18T04:00:55;2.70;;;2.50;;
50213;SDS011;36103;54.176;12.070;2022-11-18T04:02:02;3.17;;;2.40;;
50213;SDS011;36103;54.176;12.070;2022-11-18T04:03:03;3.60;;;2.70;;
50213;SDS011;36103;54.176;12.070;2022-11-18T04:04:06;2.73;;;2.47;;
50213;SDS011;36103;54.176;12.070;2022-11-18T04:05:08;2.83;;;2.53;;
50213;SDS011;36103;54.176;12.070;2022-11-18T04:06:13;2.97;;;2.67;;
50213;SDS011;36103;54.176;12.070;2022-11-18T04:07:20;3.17;;;2.53;;
50213;SDS011;36103;54.176;12.070;2022-11-18T04:08:25;3.20;;;2.73;;
50213;SDS011;36103;54.176;12.070;2022-11-18T04:09:31;2.80;;;2.50;;
50213;SDS011;36103;54.176;12.070;2022-11-18T04:10:36;2.80;;;2.60;;
50213;SDS011;36103;54.176;12.070;2022-11-18T04:11:41;2.50;;;2.30;;
50213;SDS011;36103;54.176;12.070;2022-11-18T04:13:03;2.37;;;2.17;;
50213;SDS011;36103;54.176;12.070;2022-11-18T04:14:05;2.60;;;2.40;;
50213;SDS011;36103;54.176;12.070;2022-11-18T04:15:08;2.37;;;2.17;;
50213;SDS011;36103;54.176;12.070;2022-11-18T04:16:08;2.83;;;2.50;;
50213;SDS011;36103;54.176;12.070;2022-11-18T04:17:12;2.73;;;2.53;;
50213;SDS011;36103;54.176;12.070;2022-11-18T04:18:14;2.30;;;2.10;;
50213;SDS011;36103;54.176;12.070;2022-11-18T04:19:15;2.70;;;2.50;;
50213;SDS011;36103;54.176;12.070;2022-11-18T04:20:16;2.80;;;2.57;;
50213;SDS011;36103;54.176;12.070;2022-11-18T04:21:19;2.63;;;2.27;;
50213;SDS011;36103;54.176;12.070;2022-11-18T04:22:19;2.93;;;2.63;;
50213;SDS011;36103;54.176;12.070;2022-11-18T04:23:21;4.70;;;2.90;;
50213;SDS011;36103;54.176;12.070;2022-11-18T04:24:21;2.87;;;2.50;;
50213;SDS011;36103;54.176;12.070;2022-11-18T04:25:23;2.83;;;2.60;;
50213;SDS011;36103;54.176;12.070;2022-11-18T04:26:25;2.70;;;2.50;;
50213;SDS011;36103;54.176;12.070;2022-11-18T04:27:26;3.13;;;2.73;;
50213;SDS011;36103;54.176;12.070;2022-11-18T04:28:26;2.60;;;2.40;;
50213;SDS011;36103;54.176;12.070;2022-11-18T04:29:28;2.87;;;2.60;;
50213;SDS011;36103;54.176;12.070;2022-11-18T04:30:29;2.50;;;2.30;;
50213;SDS011;36103;54.176;12.070;2022-11-18T04:31:30;3.07;;;2.80;;
50213;SDS011;36103;54.176;12.070;2022-11-18T04:33:35;2.70;;;2.47;;
50213;SDS011;36103;54.176;12.070;2022-11-18T04:34:36;2.53;;;2.33;;
50213;SDS011;36103;54.176;12.070;2022-11-18T04:35:37;2.70;;;2.50;;
50213;SDS011;36103;54.176;12.070;2022-11-18T04:36:38;3.10;;;2.80;;
50213;SDS011;36103;54.176;12.070;2022-11-18T04:37:39;3.10;;;2.80;;
50213;SDS011;36103;54.176;12.070;2022-11-18T04:38:40;2.90;;;2.70;;
50213;SDS011;36103;54.176;12.070;2022-11-18T04:39:42;2.80;;;2.60;;
50213;SDS011;36103;54.176;12.070;2022-11-18T04:40:44;2.80;;;2.50;;
50213;SDS011;36103;54.176;12.070;2022-11-18T04:41:45;2.50;;;2.30;;
50213;SDS011;36103;54.176;12.070;2022-11-18T04:42:55;3.53;;;3.23;;
50213;SDS011;36103;54.176;12.070;2022-11-18T04:43:56;2.60;;;2.40;;
50213;SDS011;36103;54.176;12.070;2022-11-18T04:44:57;2.67;;;2.47;;
50213;SDS011;36103;54.176;12.070;2022-11-18T04:45:58;2.57;;;2.30;;
50213;SDS011;36103;54.176;12.070;2022-11-18T04:46:59;2.80;;;2.50;;
50213;SDS011;36103;54.176;12.070;2022-11-18T04:48:03;2.47;;;2.20;;
50213;SDS011;36103;54.176;12.070;2022-11-18T04:49:04;3.23;;;2.70;;
50213;SDS011;36103;54.176;12.070;2022-11-18T04:50:06;2.60;;;2.40;;
50213;SDS011;36103;54.176;12.070;2022-11-18T04:51:08;2.53;;;2.30;;
50213;SDS011;36103;54.176;12.070;2022-11-18T04:52:09;3.20;;;2.80;;
50213;SDS011;36103;54.176;12.070;2022-11-18T04:53:10;2.60;;;2.40;;
50213;SDS011;36103;54.176;12.070;2022-11-18T04:54:11;2.67;;;2.20;;
50213;SDS011;36103;54.176;12.070;2022-11-18T04:55:12;2.77;;;2.53;;
50213;SDS011;36103;54.176;12.070;2022-11-18T04:56:13;2.70;;;2.50;;
50213;SDS011;36103;54.176;12.070;2022-11-18T04:57:13;3.53;;;2.83;;
50213;SDS011;36103;54.176;12.070;2022-11-18T04:58:15;2.73;;;2.53;;
50213;SDS011;36103;54.176;12.070;2022-11-18T04:59:16;2.60;;;2.40;;
50213;SDS011;36103;54.176;12.070;2022-11-18T05:00:18;3.07;;;2.60;;
50213;SDS011;36103;54.176;12.070;2022-11-18T05:01:20;2.50;;;2.30;;
50213;SDS011;36103;54.176;12.070;2022-11-18T05:02:21;3.37;;;2.63;;
50213;SDS011;36103;54.176;12.070;2022-11-18T05:03:24;2.30;;;1.90;;
50213;SDS011;36103;54.176;12.070;2022-11-18T05:04:26;2.97;;;2.63;;
50213;SDS011;36103;54.176;12.070;2022-11-18T05:05:29;2.90;;;2.60;;
50213;SDS011;36103;54.176;12.070;2022-11-18T05:06:30;3.00;;;2.73;;
50213;SDS011;36103;54.176;12.070;2022-11-18T05:07:32;3.37;;;2.83;;
50213;SDS011;36103;54.176;12.070;2022-11-18T05:08:32;2.70;;;2.50;;
50213;SDS011;36103;54.176;12.070;2022-11-18T05:09:34;2.27;;;2.07;;
50213;SDS011;36103;54.176;12.070;2022-11-18T05:10:34;2.90;;;2.50;;
50213;SDS011;36103;54.176;12.070;2022-11-18T05:11:38;2.80;;;2.50;;
50213;SDS011;36103;54.176;12.070;2022-11-18T05:12:57;3.37;;;2.83;;
50213;SDS011;36103;54.176;12.070;2022-11-18T05:13:58;2.70;;;2.50;;
50213;SDS011;36103;54.176;12.070;2022-11-18T05:14:58;3.03;;;2.73;;
50213;SDS011;36103;54.176;12.070;2022-11-18T05:16:00;2.87;;;2.60;;
50213;SDS011;36103;54.176;12.070;2022-11-18T05:17:01;3.00;;;2.70;;
50213;SDS011;36103;54.176;12.070;2022-11-18T05:18:07;3.10;;;2.80;;
50213;SDS011;36103;54.176;12.070;2022-11-18T05:19:11;2.50;;;2.30;;
50213;SDS011;36103;54.176;12.070;2022-11-18T05:20:12;2.70;;;2.50;;
50213;SDS011;36103;54.176;12.070;2022-11-18T05:21:13;2.47;;;2.27;;
50213;SDS011;36103;54.176;12.070;2022-11-18T05:22:14;2.70;;;2.50;;
50213;SDS011;36103;54.176;12.070;2022-11-18T05:23:15;4.20;;;2.43;;
50213;SDS011;36103;54.176;12.070;2022-11-18T05:24:16;3.37;;;2.47;;
50213;SDS011;36103;54.176;12.070;2022-11-18T05:25:17;2.60;;;2.40;;
50213;SDS011;36103;54.176;12.070;2022-11-18T05:26:18;2.70;;;2.40;;
50213;SDS011;36103;54.176;12.070;2022-11-18T05:27:19;2.73;;;2.50;;
50213;SDS011;36103;54.176;12.070;2022-11-18T05:28:20;2.63;;;2.43;;
50213;SDS011;36103;54.176;12.070;2022-11-18T05:29:20;2.70;;;2.50;;
50213;SDS011;36103;54.176;12.070;2022-11-18T05:30:22;2.73;;;2.43;;
50213;SDS011;36103;54.176;12.070;2022-11-18T05:31:23;2.57;;;2.37;;
50213;SDS011;36103;54.176;12.070;2022-11-18T05:32:24;2.60;;;2.40;;
50213;SDS011;36103;54.176;12.070;2022-11-18T05:33:25;2.90;;;2.60;;
50213;SDS011;36103;54.176;12.070;2022-11-18T05:34:27;2.80;;;2.47;;
50213;SDS011;36103;54.176;12.070;2022-11-18T05:35:28;2.40;;;2.20;;
50213;SDS011;36103;54.176;12.070;2022-11-18T05:36:29;2.53;;;2.33;;
50213;SDS011;36103;54.176;12.070;2022-11-18T05:37:30;2.70;;;2.50;;
50213;SDS011;36103;54.176;12.070;2022-11-18T05:38:32;3.40;;;2.70;;
50213;SDS011;36103;54.176;12.070;2022-11-18T05:39:33;3.27;;;2.97;;
50213;SDS011;36103;54.176;12.070;2022-11-18T05:40:34;3.07;;;2.40;;
50213;SDS011;36103;54.176;12.070;2022-11-18T05:41:35;2.87;;;2.53;;
50213;SDS011;36103;54.176;12.070;2022-11-18T05:42:54;2.83;;;2.63;;
50213;SDS011;36103;54.176;12.070;2022-11-18T05:44:10;2.83;;;2.63;;
50213;SDS011;36103;54.176;12.070;2022-11-18T05:45:10;2.80;;;2.33;;
50213;SDS011;36103;54.176;12.070;2022-11-18T05:46:11;2.53;;;2.33;;
50213;SDS011;36103;54.176;12.070;2022-11-18T05:47:12;2.60;;;2.40;;
50213;SDS011;36103;54.176;12.070;2022-11-18T05:48:13;2.90;;;2.40;;
50213;SDS011;36103;54.176;12.070;2022-11-18T05:49:14;2.67;;;2.47;;
50213;SDS011;36103;54.176;12.070;2022-11-18T05:50:17;3.10;;;2.80;;
50213;SDS011;36103;54.176;12.070;2022-11-18T05:51:17;3.10;;;2.80;;
50213;SDS011;36103;54.176;12.070;2022-11-18T05:52:19;3.00;;;2.70;;
50213;SDS011;36103;54.176;12.070;2022-11-18T05:53:20;2.80;;;2.60;;
50213;SDS011;36103;54.176;12.070;2022-11-18T05:54:23;2.97;;;2.60;;
50213;SDS011;36103;54.176;12.070;2022-11-18T05:55:25;2.70;;;2.50;;
50213;SDS011;36103;54.176;12.070;2022-11-18T05:56:28;2.40;;;2.30;;
50213;SDS011;36103;54.176;12.070;2022-11-18T05:57:30;2.53;;;2.33;;
50213;SDS011;36103;54.176;12.070;2022-11-18T05:58:32;2.33;;;2.13;;
50213;SDS011;36103;54.176;12.070;2022-11-18T05:59:32;2.93;;;2.63;;
50213;SDS011;36103;54.176;12.070;2022-11-18T06:00:33;2.77;;;2.57;;
50213;SDS011;36103;54.176;12.070;2022-11-18T06:01:34;2.70;;;2.30;;
50213;SDS011;36103;54.176;12.070;2022-11-18T06:02:37;3.23;;;2.90;;
50213;SDS011;36103;54.176;12.070;2022-11-18T06:03:39;2.60;;;2.40;;
50213;SDS011;36103;54.176;12.070;2022-11-18T06:04:42;2.83;;;2.63;;
50213;SDS011;36103;54.176;12.070;2022-11-18T06:05:45;2.40;;;2.20;;
50213;SDS011;36103;54.176;12.070;2022-11-18T06:06:47;2.57;;;2.37;;
50213;SDS011;36103;54.176;12.070;2022-11-18T06:07:48;3.37;;;2.60;;
50213;SDS011;36103;54.176;12.070;2022-11-18T06:08:50;2.60;;;2.40;;
50213;SDS011;36103;54.176;12.070;2022-11-18T06:09:53;3.03;;;2.50;;
50213;SDS011;36103;54.176;12.070;2022-11-18T06:10:56;2.50;;;2.30;;
50213;SDS011;36103;54.176;12.070;2022-11-18T06:11:57;2.93;;;2.63;;
50213;SDS011;36103;54.176;12.070;2022-11-18T06:13:01;2.60;;;2.40;;
50213;SDS011;36103;54.176;12.070;2022-11-18T06:14:05;2.90;;;2.43;;
50213;SDS011;36103;54.176;12.070;2022-11-18T06:15:08;3.20;;;2.50;;
50213;SDS011;36103;54.176;12.070;2022-11-18T06:16:10;2.60;;;2.40;;
50213;SDS011;36103;54.176;12.070;2022-11-18T06:17:13;2.70;;;2.50;;
50213;SDS011;36103;54.176;12.070;2022-11-18T06:18:16;2.73;;;2.53;;